sensor_id;sensor_type;location;lat;lon;timestamp;P1;durP1;ratioP1;P2;durP2;ratioP2
36315;SDS011;22343;50.820;2.666;2023-04-03T00:01:02;7.77;;;6.23;;
36315;SDS011;22343;50.820;2.666;2023-04-03T00:03:47;9.67;;;6.33;;
36315;SDS011;22343;50.820;2.666;2023-04-03T00:06:31;7.83;;;6.20;;
36315;SDS011;22343;50.820;2.666;2023-04-03T00:09:16;9.07;;;6.63;;
36315;SDS011;22343;50.820;2.666;2023-04-03T00:12:00;8.97;;;6.67;;
36315;SDS011;22343;50.820;2.666;2023-04-03T00:14:45;9.03;;;7.57;;
36315;SDS011;22343;50.820;2.666;2023-04-03T00:17:29;11.03;;;7.50;;
36315;SDS011;22343;50.820;2.666;2023-04-03T00:20:13;9.40;;;7.07;;
36315;SDS011;22343;50.820;2.666;2023-04-03T00:22:58;11.47;;;8.17;;
36315;SDS011;22343;50.820;2.666;2023-04-03T00:25:42;8.47;;;6.80;;
36315;SDS011;22343;50.820;2.666;2023-04-03T00:28:27;8.83;;;7.27;;
36315;SDS011;22343;50.820;2.666;2023-04-03T00:31:13;11.30;;;7.90;;
36315;SDS011;22343;50.820;2.666;2023-04-03T00:33:59;12.53;;;8.47;;
36315;SDS011;22343;50.820;2.666;2023-04-03T00:36:43;10.90;;;7.90;;
36315;SDS011;22343;50.820;2.666;2023-04-03T00:39:27;11.70;;;7.70;;
36315;SDS011;22343;50.820;2.666;2023-04-03T00:42:12;10.90;;;7.77;;
36315;SDS011;22343;50.820;2.666;2023-04-03T00:47:40;10.43;;;7.33;;
36315;SDS011;22343;50.820;2.666;2023-04-03T00:50:26;9.10;;;6.70;;
36315;SDS011;22343;50.820;2.666;2023-04-03T00:53:13;7.83;;;6.20;;
36315;SDS011;22343;50.820;2.666;2023-04-03T00:56:00;8.50;;;7.23;;
36315;SDS011;22343;50.820;2.666;2023-04-03T00:58:50;12.43;;;7.63;;
36315;SDS011;22343;50.820;2.666;2023-04-03T01:01:37;13.13;;;7.67;;
36315;SDS011;22343;50.820;2.666;2023-04-03T01:04:31;10.40;;;7.80;;
36315;SDS011;22343;50.820;2.666;2023-04-03T01:07:18;11.67;;;7.80;;
36315;SDS011;22343;50.820;2.666;2023-04-03T01:10:07;11.40;;;7.53;;
36315;SDS011;22343;50.820;2.666;2023-04-03T01:12:53;8.93;;;6.70;;
36315;SDS011;22343;50.820;2.666;2023-04-03T01:15:37;8.57;;;6.67;;
36315;SDS011;22343;50.820;2.666;2023-04-03T01:18:22;7.70;;;6.50;;
36315;SDS011;22343;50.820;2.666;2023-04-03T01:21:25;8.50;;;6.50;;
36315;SDS011;22343;50.820;2.666;2023-04-03T01:24:36;8.50;;;6.37;;
36315;SDS011;22343;50.820;2.666;2023-04-03T01:27:22;9.63;;;6.90;;
36315;SDS011;22343;50.820;2.666;2023-04-03T01:30:07;9.00;;;7.27;;
36315;SDS011;22343;50.820;2.666;2023-04-03T01:32:52;15.17;;;7.60;;
36315;SDS011;22343;50.820;2.666;2023-04-03T01:35:37;11.77;;;8.03;;
36315;SDS011;22343;50.820;2.666;2023-04-03T01:38:22;13.43;;;9.43;;
36315;SDS011;22343;50.820;2.666;2023-04-03T01:41:06;13.63;;;10.90;;
36315;SDS011;22343;50.820;2.666;2023-04-03T01:43:51;19.10;;;13.17;;
36315;SDS011;22343;50.820;2.666;2023-04-03T01:46:35;17.17;;;12.40;;
36315;SDS011;22343;50.820;2.666;2023-04-03T01:49:21;16.10;;;11.30;;
36315;SDS011;22343;50.820;2.666;2023-04-03T01:52:05;17.70;;;12.23;;
36315;SDS011;22343;50.820;2.666;2023-04-03T01:54:49;16.57;;;12.47;;
36315;SDS011;22343;50.820;2.666;2023-04-03T01:57:34;18.70;;;13.60;;
36315;SDS011;22343;50.820;2.666;2023-04-03T02:00:19;18.17;;;12.53;;
36315;SDS011;22343;50.820;2.666;2023-04-03T02:03:04;19.03;;;12.67;;
36315;SDS011;22343;50.820;2.666;2023-04-03T02:05:49;14.57;;;10.77;;
36315;SDS011;22343;50.820;2.666;2023-04-03T02:08:34;14.87;;;11.17;;
36315;SDS011;22343;50.820;2.666;2023-04-03T02:11:18;13.37;;;9.93;;
36315;SDS011;22343;50.820;2.666;2023-04-03T02:14:04;12.93;;;9.70;;
36315;SDS011;22343;50.820;2.666;2023-04-03T02:16:48;17.00;;;9.90;;
36315;SDS011;22343;50.820;2.666;2023-04-03T02:19:32;13.53;;;10.20;;
36315;SDS011;22343;50.820;2.666;2023-04-03T02:22:16;14.03;;;9.33;;
36315;SDS011;22343;50.820;2.666;2023-04-03T02:25:01;12.67;;;9.60;;
36315;SDS011;22343;50.820;2.666;2023-04-03T02:27:46;14.80;;;9.43;;
36315;SDS011;22343;50.820;2.666;2023-04-03T02:30:30;13.20;;;9.43;;
36315;SDS011;22343;50.820;2.666;2023-04-03T02:33:14;16.00;;;9.60;;
36315;SDS011;22343;50.820;2.666;2023-04-03T02:35:59;17.13;;;9.40;;
36315;SDS011;22343;50.820;2.666;2023-04-03T02:38:44;15.63;;;10.33;;
36315;SDS011;22343;50.820;2.666;2023-04-03T02:41:29;14.20;;;9.97;;
36315;SDS011;22343;50.820;2.666;2023-04-03T02:44:18;17.80;;;11.43;;
36315;SDS011;22343;50.820;2.666;2023-04-03T02:47:02;17.07;;;11.63;;
36315;SDS011;22343;50.820;2.666;2023-04-03T02:49:47;15.40;;;10.20;;
36315;SDS011;22343;50.820;2.666;2023-04-03T02:52:31;14.83;;;10.60;;
36315;SDS011;22343;50.820;2.666;2023-04-03T02:55:15;12.80;;;9.87;;
36315;SDS011;22343;50.820;2.666;2023-04-03T02:58:00;15.67;;;10.70;;
36315;SDS011;22343;50.820;2.666;2023-04-03T03:00:44;13.90;;;10.60;;
36315;SDS011;22343;50.820;2.666;2023-04-03T03:03:28;14.57;;;11.30;;
36315;SDS011;22343;50.820;2.666;2023-04-03T03:06:14;14.17;;;10.63;;
36315;SDS011;22343;50.820;2.666;2023-04-03T03:09:00;14.00;;;10.90;;
36315;SDS011;22343;50.820;2.666;2023-04-03T03:11:44;14.17;;;10.50;;
36315;SDS011;22343;50.820;2.666;2023-04-03T03:14:29;21.70;;;13.70;;
36315;SDS011;22343;50.820;2.666;2023-04-03T03:17:13;22.23;;;14.93;;
36315;SDS011;22343;50.820;2.666;2023-04-03T03:19:57;21.80;;;15.17;;
36315;SDS011;22343;50.820;2.666;2023-04-03T03:22:42;22.10;;;14.87;;
36315;SDS011;22343;50.820;2.666;2023-04-03T03:25:26;19.37;;;14.03;;
36315;SDS011;22343;50.820;2.666;2023-04-03T03:28:11;18.83;;;14.20;;
36315;SDS011;22343;50.820;2.666;2023-04-03T03:30:56;18.87;;;14.60;;
36315;SDS011;22343;50.820;2.666;2023-04-03T03:33:41;19.70;;;14.63;;
36315;SDS011;22343;50.820;2.666;2023-04-03T03:36:25;21.73;;;14.43;;
36315;SDS011;22343;50.820;2.666;2023-04-03T03:39:10;21.90;;;15.67;;
36315;SDS011;22343;50.820;2.666;2023-04-03T03:41:54;20.20;;;14.90;;
36315;SDS011;22343;50.820;2.666;2023-04-03T03:44:39;21.20;;;14.53;;
36315;SDS011;22343;50.820;2.666;2023-04-03T03:47:23;17.60;;;13.80;;
36315;SDS011;22343;50.820;2.666;2023-04-03T03:50:08;18.83;;;13.43;;
36315;SDS011;22343;50.820;2.666;2023-04-03T03:52:52;18.87;;;13.30;;
36315;SDS011;22343;50.820;2.666;2023-04-03T03:55:37;18.63;;;13.50;;
36315;SDS011;22343;50.820;2.666;2023-04-03T03:58:21;19.07;;;13.53;;
36315;SDS011;22343;50.820;2.666;2023-04-03T04:01:06;16.27;;;12.30;;
36315;SDS011;22343;50.820;2.666;2023-04-03T04:03:51;18.50;;;12.90;;
36315;SDS011;22343;50.820;2.666;2023-04-03T04:06:37;18.80;;;12.83;;
36315;SDS011;22343;50.820;2.666;2023-04-03T04:09:22;16.47;;;12.67;;
36315;SDS011;22343;50.820;2.666;2023-04-03T04:12:06;18.90;;;13.17;;
36315;SDS011;22343;50.820;2.666;2023-04-03T04:14:50;19.07;;;13.87;;
36315;SDS011;22343;50.820;2.666;2023-04-03T04:17:34;25.23;;;18.13;;
36315;SDS011;22343;50.820;2.666;2023-04-03T04:20:20;20.53;;;15.83;;
36315;SDS011;22343;50.820;2.666;2023-04-03T04:23:04;21.53;;;14.50;;
36315;SDS011;22343;50.820;2.666;2023-04-03T04:25:48;18.77;;;13.33;;
36315;SDS011;22343;50.820;2.666;2023-04-03T04:28:33;17.50;;;12.57;;
36315;SDS011;22343;50.820;2.666;2023-04-03T04:31:17;18.53;;;12.90;;
36315;SDS011;22343;50.820;2.666;2023-04-03T04:34:02;16.60;;;12.70;;
36315;SDS011;22343;50.820;2.666;2023-04-03T04:36:46;15.83;;;11.90;;
36315;SDS011;22343;50.820;2.666;2023-04-03T04:39:30;19.77;;;12.97;;
36315;SDS011;22343;50.820;2.666;2023-04-03T04:42:15;16.60;;;12.30;;
36315;SDS011;22343;50.820;2.666;2023-04-03T04:44:59;18.63;;;12.63;;
36315;SDS011;22343;50.820;2.666;2023-04-03T04:47:44;16.10;;;12.63;;
36315;SDS011;22343;50.820;2.666;2023-04-03T04:50:28;17.70;;;12.90;;
36315;SDS011;22343;50.820;2.666;2023-04-03T04:53:12;17.40;;;13.07;;
36315;SDS011;22343;50.820;2.666;2023-04-03T04:55:57;20.73;;;13.97;;
36315;SDS011;22343;50.820;2.666;2023-04-03T04:58:41;16.47;;;13.03;;
36315;SDS011;22343;50.820;2.666;2023-04-03T05:01:25;17.47;;;13.33;;
36315;SDS011;22343;50.820;2.666;2023-04-03T05:04:09;19.30;;;13.90;;
36315;SDS011;22343;50.820;2.666;2023-04-03T05:06:56;19.53;;;14.27;;
36315;SDS011;22343;50.820;2.666;2023-04-03T05:09:40;17.40;;;13.80;;
36315;SDS011;22343;50.820;2.666;2023-04-03T05:12:26;19.47;;;13.53;;
36315;SDS011;22343;50.820;2.666;2023-04-03T05:15:10;19.23;;;13.63;;
36315;SDS011;22343;50.820;2.666;2023-04-03T05:17:55;21.17;;;14.03;;
36315;SDS011;22343;50.820;2.666;2023-04-03T05:20:39;20.00;;;14.40;;
36315;SDS011;22343;50.820;2.666;2023-04-03T05:23:23;23.83;;;16.47;;
36315;SDS011;22343;50.820;2.666;2023-04-03T05:26:08;22.57;;;16.20;;
36315;SDS011;22343;50.820;2.666;2023-04-03T05:28:53;25.23;;;18.03;;
36315;SDS011;22343;50.820;2.666;2023-04-03T05:31:37;21.47;;;16.87;;
36315;SDS011;22343;50.820;2.666;2023-04-03T05:34:21;23.97;;;16.93;;
36315;SDS011;22343;50.820;2.666;2023-04-03T05:37:06;20.60;;;15.83;;
36315;SDS011;22343;50.820;2.666;2023-04-03T05:39:50;21.70;;;15.97;;
36315;SDS011;22343;50.820;2.666;2023-04-03T05:42:34;21.03;;;15.90;;
36315;SDS011;22343;50.820;2.666;2023-04-03T05:45:19;23.70;;;15.70;;
36315;SDS011;22343;50.820;2.666;2023-04-03T05:48:04;20.00;;;14.90;;
36315;SDS011;22343;50.820;2.666;2023-04-03T05:50:48;20.73;;;15.43;;
36315;SDS011;22343;50.820;2.666;2023-04-03T05:53:33;22.53;;;15.07;;
36315;SDS011;22343;50.820;2.666;2023-04-03T05:56:20;22.17;;;15.70;;
36315;SDS011;22343;50.820;2.666;2023-04-03T05:59:04;21.50;;;15.70;;
36315;SDS011;22343;50.820;2.666;2023-04-03T06:01:49;19.03;;;15.13;;
36315;SDS011;22343;50.820;2.666;2023-04-03T06:04:34;20.60;;;15.60;;
36315;SDS011;22343;50.820;2.666;2023-04-03T06:07:19;22.17;;;15.87;;
36315;SDS011;22343;50.820;2.666;2023-04-03T06:10:06;21.27;;;15.27;;
36315;SDS011;22343;50.820;2.666;2023-04-03T06:12:51;19.77;;;15.07;;
36315;SDS011;22343;50.820;2.666;2023-04-03T06:15:36;22.30;;;15.40;;
36315;SDS011;22343;50.820;2.666;2023-04-03T06:18:21;20.60;;;14.97;;
36315;SDS011;22343;50.820;2.666;2023-04-03T06:21:05;19.00;;;14.93;;
36315;SDS011;22343;50.820;2.666;2023-04-03T06:23:51;20.87;;;14.23;;
36315;SDS011;22343;50.820;2.666;2023-04-03T06:26:35;21.87;;;15.53;;
36315;SDS011;22343;50.820;2.666;2023-04-03T06:29:20;21.80;;;15.40;;
36315;SDS011;22343;50.820;2.666;2023-04-03T06:32:05;19.37;;;14.87;;
36315;SDS011;22343;50.820;2.666;2023-04-03T06:34:50;21.67;;;16.90;;
36315;SDS011;22343;50.820;2.666;2023-04-03T06:37:34;21.90;;;16.83;;
36315;SDS011;22343;50.820;2.666;2023-04-03T06:40:20;20.63;;;16.60;;
36315;SDS011;22343;50.820;2.666;2023-04-03T06:43:06;24.33;;;16.63;;
36315;SDS011;22343;50.820;2.666;2023-04-03T06:45:51;19.33;;;15.03;;
36315;SDS011;22343;50.820;2.666;2023-04-03T06:48:36;22.27;;;15.97;;
36315;SDS011;22343;50.820;2.666;2023-04-03T06:51:22;21.77;;;16.33;;
36315;SDS011;22343;50.820;2.666;2023-04-03T06:54:07;19.87;;;15.97;;
36315;SDS011;22343;50.820;2.666;2023-04-03T06:56:52;21.83;;;16.60;;
36315;SDS011;22343;50.820;2.666;2023-04-03T06:59:36;21.83;;;17.13;;
36315;SDS011;22343;50.820;2.666;2023-04-03T07:02:21;19.17;;;14.60;;
36315;SDS011;22343;50.820;2.666;2023-04-03T07:05:05;15.23;;;12.33;;
36315;SDS011;22343;50.820;2.666;2023-04-03T07:07:50;12.27;;;10.87;;
36315;SDS011;22343;50.820;2.666;2023-04-03T07:10:35;12.13;;;9.87;;
36315;SDS011;22343;50.820;2.666;2023-04-03T07:13:20;12.30;;;9.53;;
36315;SDS011;22343;50.820;2.666;2023-04-03T07:16:04;11.97;;;9.50;;
36315;SDS011;22343;50.820;2.666;2023-04-03T07:18:50;11.57;;;9.67;;
36315;SDS011;22343;50.820;2.666;2023-04-03T07:21:34;11.70;;;9.37;;
36315;SDS011;22343;50.820;2.666;2023-04-03T07:24:19;11.70;;;9.37;;
36315;SDS011;22343;50.820;2.666;2023-04-03T07:27:04;10.20;;;9.20;;
36315;SDS011;22343;50.820;2.666;2023-04-03T07:29:48;11.10;;;8.50;;
36315;SDS011;22343;50.820;2.666;2023-04-03T07:32:33;9.23;;;8.10;;
36315;SDS011;22343;50.820;2.666;2023-04-03T07:35:18;10.87;;;8.33;;
36315;SDS011;22343;50.820;2.666;2023-04-03T07:38:03;8.90;;;7.60;;
36315;SDS011;22343;50.820;2.666;2023-04-03T07:40:48;11.20;;;8.20;;
36315;SDS011;22343;50.820;2.666;2023-04-03T07:43:33;9.67;;;7.83;;
36315;SDS011;22343;50.820;2.666;2023-04-03T07:46:18;11.07;;;7.90;;
36315;SDS011;22343;50.820;2.666;2023-04-03T07:49:02;9.13;;;7.90;;
36315;SDS011;22343;50.820;2.666;2023-04-03T07:51:47;8.93;;;7.70;;
36315;SDS011;22343;50.820;2.666;2023-04-03T07:54:32;9.23;;;7.33;;
36315;SDS011;22343;50.820;2.666;2023-04-03T07:57:18;7.77;;;6.87;;
36315;SDS011;22343;50.820;2.666;2023-04-03T08:00:02;10.30;;;7.30;;
36315;SDS011;22343;50.820;2.666;2023-04-03T08:02:48;8.57;;;7.10;;
36315;SDS011;22343;50.820;2.666;2023-04-03T08:05:36;6.90;;;6.20;;
36315;SDS011;22343;50.820;2.666;2023-04-03T08:08:22;7.73;;;6.40;;
36315;SDS011;22343;50.820;2.666;2023-04-03T08:11:07;6.90;;;6.17;;
36315;SDS011;22343;50.820;2.666;2023-04-03T08:13:52;6.83;;;6.13;;
36315;SDS011;22343;50.820;2.666;2023-04-03T08:16:37;7.33;;;5.70;;
36315;SDS011;22343;50.820;2.666;2023-04-03T08:19:21;7.77;;;6.20;;
36315;SDS011;22343;50.820;2.666;2023-04-03T08:22:06;7.07;;;5.77;;
36315;SDS011;22343;50.820;2.666;2023-04-03T08:24:50;7.40;;;5.20;;
36315;SDS011;22343;50.820;2.666;2023-04-03T08:27:34;6.30;;;5.53;;
36315;SDS011;22343;50.820;2.666;2023-04-03T08:30:19;6.23;;;5.40;;
36315;SDS011;22343;50.820;2.666;2023-04-03T08:33:03;6.07;;;5.20;;
36315;SDS011;22343;50.820;2.666;2023-04-03T08:35:48;5.83;;;5.10;;
36315;SDS011;22343;50.820;2.666;2023-04-03T08:38:32;6.30;;;4.97;;
36315;SDS011;22343;50.820;2.666;2023-04-03T08:41:20;5.80;;;5.20;;
36315;SDS011;22343;50.820;2.666;2023-04-03T08:44:22;6.30;;;4.57;;
36315;SDS011;22343;50.820;2.666;2023-04-03T08:47:40;5.53;;;4.70;;
36315;SDS011;22343;50.820;2.666;2023-04-03T08:50:33;6.80;;;4.43;;
36315;SDS011;22343;50.820;2.666;2023-04-03T08:53:23;3.47;;;2.80;;
36315;SDS011;22343;50.820;2.666;2023-04-03T08:56:12;4.67;;;4.03;;
36315;SDS011;22343;50.820;2.666;2023-04-03T08:59:04;5.30;;;4.27;;
36315;SDS011;22343;50.820;2.666;2023-04-03T09:01:49;4.87;;;4.37;;
36315;SDS011;22343;50.820;2.666;2023-04-03T09:04:35;4.70;;;4.20;;
36315;SDS011;22343;50.820;2.666;2023-04-03T09:10:37;8.27;;;4.97;;
36315;SDS011;22343;50.820;2.666;2023-04-03T09:22:17;5.53;;;5.03;;
36315;SDS011;22343;50.820;2.666;2023-04-03T09:25:22;5.67;;;5.07;;
36315;SDS011;22343;50.820;2.666;2023-04-03T09:28:09;6.60;;;5.30;;
36315;SDS011;22343;50.820;2.666;2023-04-03T09:30:54;6.83;;;5.47;;
36315;SDS011;22343;50.820;2.666;2023-04-03T09:33:38;8.37;;;5.73;;
36315;SDS011;22343;50.820;2.666;2023-04-03T09:39:25;7.90;;;5.23;;
36315;SDS011;22343;50.820;2.666;2023-04-03T09:42:19;6.97;;;6.03;;
36315;SDS011;22343;50.820;2.666;2023-04-03T09:45:05;7.67;;;6.23;;
36315;SDS011;22343;50.820;2.666;2023-04-03T09:48:07;7.27;;;6.23;;
36315;SDS011;22343;50.820;2.666;2023-04-03T09:50:58;7.60;;;6.13;;
36315;SDS011;22343;50.820;2.666;2023-04-03T09:53:44;7.70;;;5.63;;
36315;SDS011;22343;50.820;2.666;2023-04-03T09:56:29;8.47;;;6.50;;
36315;SDS011;22343;50.820;2.666;2023-04-03T09:59:14;7.60;;;6.50;;
36315;SDS011;22343;50.820;2.666;2023-04-03T10:02:43;10.20;;;7.90;;
36315;SDS011;22343;50.820;2.666;2023-04-03T10:05:34;9.03;;;6.93;;
36315;SDS011;22343;50.820;2.666;2023-04-03T10:08:21;9.23;;;7.90;;
36315;SDS011;22343;50.820;2.666;2023-04-03T10:11:12;9.60;;;7.47;;
36315;SDS011;22343;50.820;2.666;2023-04-03T10:14:02;9.53;;;7.43;;
36315;SDS011;22343;50.820;2.666;2023-04-03T10:16:50;10.53;;;7.60;;
36315;SDS011;22343;50.820;2.666;2023-04-03T10:19:47;8.70;;;6.97;;
36315;SDS011;22343;50.820;2.666;2023-04-03T10:32:02;10.47;;;6.90;;
36315;SDS011;22343;50.820;2.666;2023-04-03T10:35:37;9.33;;;7.50;;
36315;SDS011;22343;50.820;2.666;2023-04-03T10:47:58;8.30;;;5.87;;
36315;SDS011;22343;50.820;2.666;2023-04-03T10:54:05;12.97;;;10.43;;
36315;SDS011;22343;50.820;2.666;2023-04-03T10:57:00;12.47;;;9.07;;
36315;SDS011;22343;50.820;2.666;2023-04-03T10:59:53;11.37;;;9.53;;
36315;SDS011;22343;50.820;2.666;2023-04-03T11:02:47;8.73;;;6.83;;
36315;SDS011;22343;50.820;2.666;2023-04-03T11:05:48;11.93;;;8.03;;
36315;SDS011;22343;50.820;2.666;2023-04-03T11:08:36;9.63;;;8.23;;
36315;SDS011;22343;50.820;2.666;2023-04-03T11:11:27;10.67;;;9.17;;
36315;SDS011;22343;50.820;2.666;2023-04-03T11:20:21;11.47;;;9.20;;
36315;SDS011;22343;50.820;2.666;2023-04-03T11:26:07;11.47;;;8.77;;
36315;SDS011;22343;50.820;2.666;2023-04-03T11:28:57;13.13;;;10.20;;
36315;SDS011;22343;50.820;2.666;2023-04-03T11:37:29;11.90;;;8.57;;
36315;SDS011;22343;50.820;2.666;2023-04-03T11:43:15;6.97;;;5.93;;
36315;SDS011;22343;50.820;2.666;2023-04-03T11:46:21;8.83;;;5.97;;
36315;SDS011;22343;50.820;2.666;2023-04-03T11:49:08;5.90;;;4.23;;
36315;SDS011;22343;50.820;2.666;2023-04-03T11:58:16;7.67;;;5.57;;
36315;SDS011;22343;50.820;2.666;2023-04-03T12:01:03;5.87;;;4.87;;
36315;SDS011;22343;50.820;2.666;2023-04-03T12:09:23;6.70;;;4.80;;
36315;SDS011;22343;50.820;2.666;2023-04-03T12:12:28;4.97;;;4.40;;
36315;SDS011;22343;50.820;2.666;2023-04-03T12:30:25;6.60;;;5.53;;
36315;SDS011;22343;50.820;2.666;2023-04-03T12:36:02;5.77;;;3.83;;
36315;SDS011;22343;50.820;2.666;2023-04-03T12:44:47;4.30;;;3.77;;
36315;SDS011;22343;50.820;2.666;2023-04-03T12:48:03;5.30;;;4.27;;
36315;SDS011;22343;50.820;2.666;2023-04-03T12:50:50;7.10;;;3.90;;
36315;SDS011;22343;50.820;2.666;2023-04-03T12:53:35;5.63;;;4.00;;
36315;SDS011;22343;50.820;2.666;2023-04-03T12:56:26;4.80;;;4.30;;
36315;SDS011;22343;50.820;2.666;2023-04-03T12:59:13;6.20;;;4.23;;
36315;SDS011;22343;50.820;2.666;2023-04-03T13:01:59;5.47;;;4.80;;
36315;SDS011;22343;50.820;2.666;2023-04-03T13:04:44;4.53;;;4.10;;
36315;SDS011;22343;50.820;2.666;2023-04-03T13:07:31;4.50;;;3.43;;
36315;SDS011;22343;50.820;2.666;2023-04-03T13:10:17;5.33;;;4.10;;
36315;SDS011;22343;50.820;2.666;2023-04-03T13:13:09;4.90;;;3.77;;
36315;SDS011;22343;50.820;2.666;2023-04-03T13:15:54;3.97;;;3.57;;
36315;SDS011;22343;50.820;2.666;2023-04-03T13:18:38;5.50;;;4.67;;
36315;SDS011;22343;50.820;2.666;2023-04-03T13:24:17;5.23;;;4.13;;
36315;SDS011;22343;50.820;2.666;2023-04-03T13:27:01;6.07;;;4.50;;
36315;SDS011;22343;50.820;2.666;2023-04-03T13:29:50;6.43;;;3.43;;
36315;SDS011;22343;50.820;2.666;2023-04-03T13:32:37;4.20;;;3.53;;
36315;SDS011;22343;50.820;2.666;2023-04-03T13:35:37;7.07;;;3.80;;
36315;SDS011;22343;50.820;2.666;2023-04-03T13:38:25;7.07;;;4.40;;
36315;SDS011;22343;50.820;2.666;2023-04-03T13:41:29;6.63;;;3.97;;
36315;SDS011;22343;50.820;2.666;2023-04-03T13:50:02;5.37;;;4.13;;
36315;SDS011;22343;50.820;2.666;2023-04-03T13:53:01;4.63;;;3.57;;
36315;SDS011;22343;50.820;2.666;2023-04-03T13:58:54;5.57;;;4.03;;
36315;SDS011;22343;50.820;2.666;2023-04-03T14:07:21;5.80;;;3.90;;
36315;SDS011;22343;50.820;2.666;2023-04-03T14:10:06;4.00;;;3.30;;
36315;SDS011;22343;50.820;2.666;2023-04-03T14:12:50;4.10;;;2.90;;
36315;SDS011;22343;50.820;2.666;2023-04-03T14:15:35;4.80;;;3.43;;
36315;SDS011;22343;50.820;2.666;2023-04-03T14:18:20;4.53;;;3.00;;
36315;SDS011;22343;50.820;2.666;2023-04-03T14:21:04;4.13;;;3.30;;
36315;SDS011;22343;50.820;2.666;2023-04-03T14:23:50;4.67;;;3.50;;
36315;SDS011;22343;50.820;2.666;2023-04-03T14:26:34;4.23;;;3.40;;
36315;SDS011;22343;50.820;2.666;2023-04-03T14:29:21;4.33;;;3.20;;
36315;SDS011;22343;50.820;2.666;2023-04-03T14:32:06;4.43;;;3.40;;
36315;SDS011;22343;50.820;2.666;2023-04-03T14:34:51;4.90;;;3.50;;
36315;SDS011;22343;50.820;2.666;2023-04-03T14:37:37;4.40;;;3.40;;
36315;SDS011;22343;50.820;2.666;2023-04-03T14:40:25;4.40;;;3.10;;
36315;SDS011;22343;50.820;2.666;2023-04-03T14:43:11;5.13;;;3.10;;
36315;SDS011;22343;50.820;2.666;2023-04-03T14:45:56;4.73;;;3.03;;
36315;SDS011;22343;50.820;2.666;2023-04-03T14:48:41;5.37;;;3.37;;
36315;SDS011;22343;50.820;2.666;2023-04-03T14:51:25;4.87;;;3.50;;
36315;SDS011;22343;50.820;2.666;2023-04-03T14:54:12;5.23;;;3.50;;
36315;SDS011;22343;50.820;2.666;2023-04-03T14:56:59;4.33;;;3.87;;
36315;SDS011;22343;50.820;2.666;2023-04-03T14:59:44;3.43;;;3.10;;
36315;SDS011;22343;50.820;2.666;2023-04-03T15:02:33;7.40;;;3.93;;
36315;SDS011;22343;50.820;2.666;2023-04-03T15:05:20;5.43;;;3.73;;
36315;SDS011;22343;50.820;2.666;2023-04-03T15:08:05;5.23;;;3.97;;
36315;SDS011;22343;50.820;2.666;2023-04-03T15:10:49;4.67;;;4.00;;
36315;SDS011;22343;50.820;2.666;2023-04-03T15:13:37;3.97;;;3.30;;
36315;SDS011;22343;50.820;2.666;2023-04-03T15:16:22;3.80;;;3.23;;
36315;SDS011;22343;50.820;2.666;2023-04-03T15:19:07;5.37;;;3.63;;
36315;SDS011;22343;50.820;2.666;2023-04-03T15:21:51;7.40;;;3.70;;
36315;SDS011;22343;50.820;2.666;2023-04-03T15:24:36;5.40;;;3.90;;
36315;SDS011;22343;50.820;2.666;2023-04-03T15:27:20;6.40;;;4.10;;
36315;SDS011;22343;50.820;2.666;2023-04-03T15:30:06;5.33;;;3.80;;
36315;SDS011;22343;50.820;2.666;2023-04-03T15:32:52;5.27;;;3.40;;
36315;SDS011;22343;50.820;2.666;2023-04-03T15:35:37;4.37;;;3.67;;
36315;SDS011;22343;50.820;2.666;2023-04-03T15:38:21;3.93;;;2.90;;
36315;SDS011;22343;50.820;2.666;2023-04-03T15:41:05;3.50;;;2.77;;
36315;SDS011;22343;50.820;2.666;2023-04-03T15:43:50;4.90;;;3.40;;
36315;SDS011;22343;50.820;2.666;2023-04-03T15:46:34;4.60;;;3.67;;
36315;SDS011;22343;50.820;2.666;2023-04-03T15:49:18;5.30;;;3.87;;
36315;SDS011;22343;50.820;2.666;2023-04-03T15:52:03;3.77;;;2.97;;
36315;SDS011;22343;50.820;2.666;2023-04-03T15:54:48;4.30;;;3.20;;
36315;SDS011;22343;50.820;2.666;2023-04-03T15:57:33;5.13;;;3.60;;
36315;SDS011;22343;50.820;2.666;2023-04-03T16:00:17;5.87;;;4.00;;
36315;SDS011;22343;50.820;2.666;2023-04-03T16:03:08;5.03;;;3.57;;
36315;SDS011;22343;50.820;2.666;2023-04-03T16:05:54;4.60;;;3.80;;
36315;SDS011;22343;50.820;2.666;2023-04-03T16:08:39;6.63;;;3.77;;
36315;SDS011;22343;50.820;2.666;2023-04-03T16:11:24;4.90;;;3.40;;
36315;SDS011;22343;50.820;2.666;2023-04-03T16:14:10;5.00;;;3.90;;
36315;SDS011;22343;50.820;2.666;2023-04-03T16:16:54;6.97;;;3.53;;
36315;SDS011;22343;50.820;2.666;2023-04-03T16:19:39;4.50;;;3.00;;
36315;SDS011;22343;50.820;2.666;2023-04-03T16:22:23;6.20;;;4.50;;
36315;SDS011;22343;50.820;2.666;2023-04-03T16:25:09;8.70;;;5.40;;
36315;SDS011;22343;50.820;2.666;2023-04-03T16:27:54;7.13;;;3.77;;
36315;SDS011;22343;50.820;2.666;2023-04-03T16:30:42;5.17;;;3.10;;
36315;SDS011;22343;50.820;2.666;2023-04-03T16:33:27;5.33;;;3.30;;
36315;SDS011;22343;50.820;2.666;2023-04-03T16:36:12;3.80;;;3.07;;
36315;SDS011;22343;50.820;2.666;2023-04-03T16:38:56;5.63;;;3.63;;
36315;SDS011;22343;50.820;2.666;2023-04-03T16:41:40;5.60;;;3.80;;
36315;SDS011;22343;50.820;2.666;2023-04-03T16:44:25;5.23;;;3.33;;
36315;SDS011;22343;50.820;2.666;2023-04-03T16:47:10;3.13;;;2.83;;
36315;SDS011;22343;50.820;2.666;2023-04-03T16:49:54;4.50;;;3.60;;
36315;SDS011;22343;50.820;2.666;2023-04-03T16:52:40;6.03;;;3.80;;
36315;SDS011;22343;50.820;2.666;2023-04-03T16:55:24;5.13;;;4.17;;
36315;SDS011;22343;50.820;2.666;2023-04-03T16:58:09;5.40;;;4.10;;
36315;SDS011;22343;50.820;2.666;2023-04-03T17:00:53;5.63;;;4.07;;
36315;SDS011;22343;50.820;2.666;2023-04-03T17:03:39;6.17;;;5.13;;
36315;SDS011;22343;50.820;2.666;2023-04-03T17:06:23;5.23;;;3.63;;
36315;SDS011;22343;50.820;2.666;2023-04-03T17:09:07;19.23;;;11.30;;
36315;SDS011;22343;50.820;2.666;2023-04-03T17:11:53;16.13;;;11.60;;
36315;SDS011;22343;50.820;2.666;2023-04-03T17:14:37;7.33;;;5.67;;
36315;SDS011;22343;50.820;2.666;2023-04-03T17:17:22;5.73;;;3.50;;
36315;SDS011;22343;50.820;2.666;2023-04-03T17:20:07;8.13;;;6.23;;
36315;SDS011;22343;50.820;2.666;2023-04-03T17:22:52;13.40;;;7.63;;
36315;SDS011;22343;50.820;2.666;2023-04-03T17:25:37;29.17;;;16.70;;
36315;SDS011;22343;50.820;2.666;2023-04-03T17:28:22;5.53;;;4.17;;
36315;SDS011;22343;50.820;2.666;2023-04-03T17:31:11;8.77;;;5.93;;
36315;SDS011;22343;50.820;2.666;2023-04-03T17:33:56;6.10;;;3.70;;
36315;SDS011;22343;50.820;2.666;2023-04-03T17:36:40;5.77;;;3.33;;
36315;SDS011;22343;50.820;2.666;2023-04-03T17:39:25;4.23;;;3.23;;
36315;SDS011;22343;50.820;2.666;2023-04-03T17:42:09;4.00;;;3.10;;
36315;SDS011;22343;50.820;2.666;2023-04-03T17:44:54;5.37;;;3.20;;
36315;SDS011;22343;50.820;2.666;2023-04-03T17:47:39;4.03;;;3.10;;
36315;SDS011;22343;50.820;2.666;2023-04-03T17:50:23;4.53;;;3.03;;
36315;SDS011;22343;50.820;2.666;2023-04-03T17:53:08;3.77;;;2.70;;
36315;SDS011;22343;50.820;2.666;2023-04-03T17:55:52;5.07;;;4.27;;
36315;SDS011;22343;50.820;2.666;2023-04-03T17:58:36;4.97;;;4.30;;
36315;SDS011;22343;50.820;2.666;2023-04-03T18:01:26;7.03;;;4.63;;
36315;SDS011;22343;50.820;2.666;2023-04-03T18:04:12;6.17;;;3.93;;
36315;SDS011;22343;50.820;2.666;2023-04-03T18:06:56;5.00;;;3.20;;
36315;SDS011;22343;50.820;2.666;2023-04-03T18:09:41;3.43;;;2.90;;
36315;SDS011;22343;50.820;2.666;2023-04-03T18:12:25;5.00;;;3.80;;
36315;SDS011;22343;50.820;2.666;2023-04-03T18:15:10;5.80;;;3.60;;
36315;SDS011;22343;50.820;2.666;2023-04-03T18:17:54;6.30;;;3.60;;
36315;SDS011;22343;50.820;2.666;2023-04-03T18:20:40;6.07;;;3.80;;
36315;SDS011;22343;50.820;2.666;2023-04-03T18:23:25;6.50;;;4.00;;